createdAt,value
2017-09-10T00:00:01.836Z,7.50
2017-09-10T00:02:31.463Z,5.40
2017-09-10T00:04:59.049Z,7.10
2017-09-10T00:07:26.642Z,8.57
2017-09-10T00:09:54.365Z,4.33
2017-09-10T00:12:21.922Z,6.10
2017-09-10T00:14:49.518Z,4.47
2017-09-10T00:17:17.083Z,5.77
2017-09-10T00:19:44.931Z,5.70
2017-09-10T00:22:12.495Z,3.93
2017-09-10T00:24:40.363Z,4.67
2017-09-10T00:27:07.950Z,9.10
2017-09-10T00:29:36.313Z,7.60
2017-09-10T00:32:03.911Z,6.23
2017-09-10T00:34:32.242Z,5.70
2017-09-10T00:36:59.794Z,8.93
2017-09-10T00:39:27.741Z,4.80
2017-09-10T00:41:55.301Z,9.03
2017-09-10T00:44:23.180Z,9.63
2017-09-10T00:46:50.753Z,9.40
2017-09-10T00:49:18.313Z,8.90
2017-09-10T00:51:45.896Z,7.57
2017-09-10T00:54:14.318Z,5.93
2017-09-10T00:56:41.906Z,7.07
2017-09-10T00:59:09.470Z,6.90
2017-09-10T01:01:37.439Z,6.00
2017-09-10T01:04:05.082Z,7.40
2017-09-10T01:06:32.649Z,5.43
2017-09-10T01:09:00.595Z,7.20
2017-09-10T01:11:28.158Z,13.60
2017-09-10T01:13:56.015Z,36.17
2017-09-10T01:16:24.471Z,8.53
2017-09-10T01:18:52.803Z,7.80
2017-09-10T01:21:20.399Z,9.20
2017-09-10T01:23:48.734Z,9.80
2017-09-10T01:26:17.078Z,8.00
2017-09-10T01:28:44.986Z,34.83
2017-09-10T01:31:12.854Z,16.97
2017-09-10T01:33:40.409Z,18.50
2017-09-10T01:36:07.978Z,36.27
2017-09-10T01:38:35.570Z,40.90
2017-09-10T01:41:03.926Z,44.40
2017-09-10T01:43:31.513Z,26.27
2017-09-10T01:45:59.839Z,40.07
2017-09-10T01:48:27.702Z,42.67
2017-09-10T01:50:55.321Z,24.00
2017-09-10T01:53:22.908Z,21.07
2017-09-10T01:55:50.563Z,118.87
2017-09-10T01:58:18.120Z,56.10
2017-09-10T02:00:45.718Z,37.47
2017-09-10T02:03:13.289Z,24.93
2017-09-10T02:05:41.205Z,18.57
2017-09-10T02:08:08.804Z,102.60
2017-09-10T02:10:36.402Z,33.57
2017-09-10T02:13:04.755Z,36.57
2017-09-10T02:15:32.325Z,22.80
2017-09-10T02:18:00.674Z,46.07
2017-09-10T02:20:28.241Z,29.57
2017-09-10T02:22:56.094Z,20.47
2017-09-10T02:25:23.666Z,26.53
2017-09-10T02:27:51.217Z,16.10
2017-09-10T02:30:18.849Z,25.47
2017-09-10T02:32:46.398Z,31.20
2017-09-10T02:35:14.000Z,27.53
2017-09-10T02:37:41.554Z,20.27
2017-09-10T02:40:09.417Z,23.90
2017-09-10T02:42:36.991Z,32.93
2017-09-10T02:45:04.549Z,30.90
2017-09-10T02:47:32.150Z,23.10
2017-09-10T02:49:59.730Z,84.00
2017-09-10T02:52:27.327Z,23.23
2017-09-10T02:54:54.961Z,27.30
2017-09-10T02:57:22.938Z,59.10
2017-09-10T02:59:50.510Z,28.30
2017-09-10T03:02:18.120Z,34.87
2017-09-10T03:04:45.710Z,25.73
2017-09-10T03:07:13.275Z,27.03
2017-09-10T03:09:40.877Z,79.07
2017-09-10T03:12:09.210Z,44.07
2017-09-10T03:14:37.175Z,37.53
2017-09-10T03:17:04.730Z,61.97
2017-09-10T03:19:32.293Z,42.37
2017-09-10T03:22:00.047Z,29.10
2017-09-10T03:24:27.614Z,72.20
2017-09-10T03:26:55.226Z,51.57
2017-09-10T03:29:23.583Z,113.63
2017-09-10T03:31:51.529Z,70.93
2017-09-10T03:34:19.086Z,105.47
2017-09-10T03:36:46.650Z,35.97
2017-09-10T03:39:14.249Z,32.37
2017-09-10T03:41:41.837Z,34.17
2017-09-10T03:44:09.423Z,46.97
2017-09-10T03:46:36.987Z,56.47
2017-09-10T03:49:04.858Z,26.43
2017-09-10T03:51:32.430Z,23.60
2017-09-10T03:53:59.989Z,18.07
2017-09-10T03:56:27.577Z,12.80
2017-09-10T03:58:55.142Z,13.17
2017-09-10T04:01:22.734Z,9.97
2017-09-10T04:03:50.288Z,12.03
2017-09-10T04:06:18.179Z,34.87
2017-09-10T04:08:45.730Z,24.20
2017-09-10T04:11:13.390Z,19.60
2017-09-10T04:13:40.981Z,22.00
2017-09-10T04:16:08.549Z,27.07
2017-09-10T04:18:36.124Z,12.60
2017-09-10T04:21:04.470Z,18.13
2017-09-10T04:23:32.417Z,45.23
2017-09-10T04:25:59.981Z,26.70
2017-09-10T04:28:27.538Z,21.27
2017-09-10T04:30:55.122Z,15.20
2017-09-10T04:33:22.645Z,19.53
2017-09-10T04:35:50.226Z,21.70
2017-09-10T04:38:17.793Z,14.17
2017-09-10T04:40:46.396Z,17.93
2017-09-10T04:43:14.728Z,13.97
2017-09-10T04:45:42.282Z,10.23
2017-09-10T04:48:09.853Z,12.33
2017-09-10T04:50:37.411Z,17.97
2017-09-10T04:53:05.123Z,13.80
2017-09-10T04:55:33.454Z,42.63
2017-09-10T04:58:01.314Z,34.93
2017-09-10T05:00:28.865Z,43.37
2017-09-10T05:02:56.434Z,55.10
2017-09-10T05:05:24.038Z,51.60
2017-09-10T05:07:52.375Z,29.80
2017-09-10T05:10:19.961Z,24.73
2017-09-10T05:12:47.663Z,46.27
2017-09-10T05:15:15.573Z,29.20
2017-09-10T05:17:43.138Z,30.57
2017-09-10T05:20:10.700Z,34.47
2017-09-10T05:22:38.284Z,22.60
2017-09-10T05:25:06.633Z,38.57
2017-09-10T05:27:34.598Z,26.53
2017-09-10T05:30:02.162Z,8.87
2017-09-10T05:32:29.712Z,8.67
2017-09-10T05:34:58.060Z,5.90
2017-09-10T05:37:25.646Z,6.43
2017-09-10T05:39:53.611Z,6.37
2017-09-10T05:42:21.918Z,10.73
2017-09-10T05:44:49.482Z,8.50
2017-09-10T05:47:17.824Z,8.07
2017-09-10T05:49:45.387Z,10.43
2017-09-10T05:52:14.030Z,10.17
2017-09-10T05:54:41.625Z,6.97
2017-09-10T05:57:09.198Z,8.33
2017-09-10T05:59:36.781Z,7.60
2017-09-10T06:02:05.107Z,8.30
2017-09-10T06:04:32.694Z,7.43
2017-09-10T06:07:00.798Z,7.43
2017-09-10T06:09:28.375Z,8.03
2017-09-10T06:11:55.974Z,8.40
2017-09-10T06:14:23.545Z,10.43
2017-09-10T06:16:51.194Z,8.07
2017-09-10T06:19:18.751Z,8.60
2017-09-10T06:21:46.325Z,6.03
2017-09-10T06:24:13.914Z,10.43
2017-09-10T06:26:42.251Z,14.53
2017-09-10T06:29:09.855Z,11.30
2017-09-10T06:31:38.203Z,8.03
2017-09-10T06:34:05.770Z,8.90
2017-09-10T06:36:33.351Z,12.10
2017-09-10T06:39:02.445Z,12.53
2017-09-10T06:41:31.541Z,15.07
2017-09-10T06:43:59.886Z,13.40
2017-09-10T06:46:27.839Z,10.57
2017-09-10T06:48:55.433Z,14.00
2017-09-10T06:51:23.773Z,16.13
2017-09-10T06:53:51.352Z,13.93
2017-09-10T06:56:18.933Z,14.53
2017-09-10T06:58:47.290Z,17.17
2017-09-10T07:01:14.854Z,19.43
2017-09-10T07:03:43.197Z,21.40
2017-09-10T07:06:10.756Z,12.33
2017-09-10T07:08:38.826Z,9.67
2017-09-10T07:11:06.454Z,7.60
2017-09-10T07:13:34.018Z,6.77
2017-09-10T07:16:01.610Z,4.70
2017-09-10T07:18:29.180Z,5.30
2017-09-10T07:20:57.141Z,3.87
2017-09-10T07:23:24.746Z,5.93
2017-09-10T07:25:53.103Z,5.30
2017-09-10T07:28:20.716Z,3.93
2017-09-10T07:30:48.292Z,5.20
2017-09-10T07:33:16.171Z,4.50
2017-09-10T07:35:43.759Z,4.80
2017-09-10T07:38:11.455Z,4.77
2017-09-10T07:40:39.036Z,6.00
2017-09-10T07:43:06.618Z,7.63
2017-09-10T07:45:34.234Z,5.57
2017-09-10T07:48:01.830Z,6.60
2017-09-10T07:50:29.699Z,5.90
2017-09-10T07:52:57.278Z,6.83
2017-09-10T07:55:24.839Z,6.03
2017-09-10T07:58:07.626Z,6.40
2017-09-10T08:00:35.196Z,7.13
2017-09-10T08:03:03.059Z,6.73
2017-09-10T08:05:30.699Z,7.37
2017-09-10T08:07:58.268Z,7.27
2017-09-10T08:10:25.870Z,9.57
2017-09-10T08:12:54.262Z,13.33
2017-09-10T08:15:21.946Z,9.13
2017-09-10T08:17:49.519Z,9.23
2017-09-10T08:20:17.431Z,7.63
2017-09-10T08:22:45.031Z,8.67
2017-09-10T08:25:12.626Z,11.23
2017-09-10T08:27:40.198Z,11.77
2017-09-10T08:30:07.793Z,12.43
2017-09-10T08:32:36.562Z,11.40
2017-09-10T08:35:04.145Z,9.97
2017-09-10T08:37:31.725Z,10.57
2017-09-10T08:39:59.335Z,15.87
2017-09-10T08:42:26.932Z,13.60
2017-09-10T08:44:54.544Z,16.30
2017-09-10T08:47:22.155Z,13.27
2017-09-10T08:49:49.744Z,15.10
2017-09-10T08:52:17.427Z,13.00
2017-09-10T08:54:45.023Z,13.43
2017-09-10T08:57:12.948Z,13.17
2017-09-10T08:59:40.543Z,15.00
2017-09-10T09:02:08.916Z,15.37
2017-09-10T09:04:37.308Z,13.50
2017-09-10T09:07:04.910Z,15.07
2017-09-10T09:09:32.551Z,14.60
2017-09-10T09:12:00.175Z,14.83
2017-09-10T09:14:28.996Z,10.13
2017-09-10T09:16:57.973Z,14.50
2017-09-10T09:19:25.822Z,11.87
2017-09-10T09:21:54.209Z,10.83
2017-09-10T09:24:21.847Z,12.90
2017-09-10T09:26:49.504Z,8.67
2017-09-10T09:29:17.138Z,17.63
2017-09-10T09:31:45.065Z,8.43
2017-09-10T09:34:12.648Z,7.50
2017-09-10T09:36:40.205Z,9.73
2017-09-10T09:39:07.831Z,8.40
2017-09-10T09:41:36.292Z,12.70
2017-09-10T09:44:04.715Z,15.00
2017-09-10T09:46:32.292Z,9.80
2017-09-10T09:49:00.200Z,15.60
2017-09-10T09:51:27.777Z,14.13
2017-09-10T09:53:56.301Z,13.67
2017-09-10T09:56:24.279Z,12.70
2017-09-10T09:58:51.919Z,12.10
2017-09-10T10:01:19.829Z,12.97
2017-09-10T10:03:47.687Z,11.07
2017-09-10T10:06:15.521Z,13.60
2017-09-10T10:08:43.337Z,11.40
2017-09-10T10:11:10.937Z,16.53
2017-09-10T10:13:38.594Z,16.40
2017-09-10T10:16:06.207Z,16.37
2017-09-10T10:18:34.282Z,15.33
2017-09-10T10:21:01.939Z,17.40
2017-09-10T10:23:29.542Z,25.43
2017-09-10T10:25:57.155Z,19.17
2017-09-10T10:28:25.505Z,15.97
2017-09-10T10:30:53.103Z,18.00
2017-09-10T10:33:20.701Z,19.93
2017-09-10T10:35:48.627Z,21.60
2017-09-10T10:38:16.228Z,16.87
2017-09-10T10:40:43.810Z,15.27
2017-09-10T10:43:11.404Z,19.03
2017-09-10T10:45:39.003Z,15.33
2017-09-10T10:48:06.614Z,16.30
2017-09-10T10:50:34.230Z,14.00
2017-09-10T10:53:02.148Z,17.30
2017-09-10T10:55:29.715Z,16.70
2017-09-10T10:57:57.293Z,14.47
2017-09-10T11:00:24.894Z,13.93
2017-09-10T11:02:52.473Z,16.60
2017-09-10T11:05:20.063Z,12.17
2017-09-10T11:07:47.649Z,13.07
2017-09-10T11:10:15.744Z,11.03
2017-09-10T11:12:43.323Z,10.07
2017-09-10T11:15:10.914Z,10.63
2017-09-10T11:17:38.511Z,12.10
2017-09-10T11:20:06.128Z,9.77
2017-09-10T11:22:33.748Z,11.20
2017-09-10T11:25:01.326Z,10.00
2017-09-10T11:27:29.205Z,9.30
2017-09-10T11:29:56.778Z,10.13
2017-09-10T11:32:24.357Z,15.90
2017-09-10T11:34:52.722Z,8.83
2017-09-10T11:37:21.079Z,6.97
2017-09-10T11:39:50.558Z,7.73
2017-09-10T11:42:18.745Z,11.70
2017-09-10T11:44:46.341Z,10.70
2017-09-10T11:47:14.776Z,8.53
2017-09-10T11:49:42.350Z,6.80
2017-09-10T11:52:09.951Z,5.43
2017-09-10T11:54:38.358Z,6.57
2017-09-10T11:57:06.230Z,6.33
2017-09-10T11:59:33.778Z,6.40
2017-09-10T12:02:01.365Z,5.60
2017-09-10T12:04:29.755Z,7.23
2017-09-10T12:06:57.348Z,3.83
2017-09-10T12:09:25.816Z,5.00
2017-09-10T12:11:53.392Z,4.80
2017-09-10T12:14:22.038Z,5.00
2017-09-10T12:16:49.642Z,5.70
2017-09-10T12:19:17.974Z,5.00
2017-09-10T12:21:45.579Z,6.27
2017-09-10T12:24:13.993Z,4.90
2017-09-10T12:26:41.587Z,5.80
2017-09-10T12:29:09.185Z,3.30
2017-09-10T12:31:37.095Z,4.17
2017-09-10T12:34:04.736Z,3.90
2017-09-10T12:36:32.307Z,3.97
2017-09-10T12:38:59.928Z,8.03
2017-09-10T12:41:27.510Z,3.80
2017-09-10T12:43:55.118Z,5.70
2017-09-10T12:46:22.727Z,4.13
2017-09-10T12:48:50.631Z,5.30
2017-09-10T12:51:18.256Z,8.63
2017-09-10T12:53:45.878Z,9.23
2017-09-10T12:56:14.270Z,7.13
2017-09-10T12:58:42.613Z,8.03
2017-09-10T13:01:10.219Z,10.37
2017-09-10T13:03:37.849Z,9.10
2017-09-10T13:06:05.791Z,10.10
2017-09-10T13:08:33.358Z,9.83
2017-09-10T13:11:00.952Z,7.17
2017-09-10T13:13:29.811Z,10.90
2017-09-10T13:15:57.378Z,12.87
2017-09-10T13:18:25.065Z,11.80
2017-09-10T13:20:53.458Z,14.33
2017-09-10T13:23:21.363Z,10.73
2017-09-10T13:25:49.027Z,13.50
2017-09-10T13:28:17.421Z,12.60
2017-09-10T13:30:45.032Z,12.63
2017-09-10T13:33:12.610Z,11.47
2017-09-10T13:35:40.198Z,12.97
2017-09-10T13:38:07.784Z,14.80
2017-09-10T13:40:36.542Z,11.80
2017-09-10T13:43:04.130Z,12.83
2017-09-10T13:45:32.469Z,9.70
2017-09-10T13:48:00.079Z,9.80
2017-09-10T13:50:27.676Z,10.60
2017-09-10T13:52:55.282Z,9.37
2017-09-10T13:55:23.641Z,8.23
2017-09-10T13:57:51.592Z,8.10
2017-09-10T14:00:19.191Z,10.77
2017-09-10T14:02:47.689Z,7.70
2017-09-10T14:05:15.263Z,12.20
2017-09-10T14:07:42.831Z,3.97
2017-09-10T14:10:10.426Z,6.57
2017-09-10T14:12:37.986Z,6.20
2017-09-10T14:15:05.972Z,4.30
2017-09-10T14:17:34.313Z,4.27
2017-09-10T14:20:01.886Z,9.37
2017-09-10T14:22:29.462Z,5.87
2017-09-10T14:24:57.412Z,8.07
2017-09-10T14:27:25.091Z,3.10
2017-09-10T14:29:52.673Z,11.13
2017-09-10T14:32:21.315Z,3.70
2017-09-10T14:34:48.890Z,5.50
2017-09-10T14:37:16.515Z,5.37
2017-09-10T14:39:44.137Z,4.53
2017-09-10T14:42:12.499Z,7.20
2017-09-10T14:44:40.855Z,4.13
2017-09-10T14:47:08.443Z,2.70
2017-09-10T14:49:37.095Z,4.33
2017-09-10T14:52:04.663Z,5.80
2017-09-10T14:54:32.242Z,6.13
2017-09-10T14:57:00.590Z,7.33
2017-09-10T14:59:28.193Z,5.77
2017-09-10T15:01:56.600Z,6.43
2017-09-10T15:04:24.164Z,8.20
2017-09-10T15:06:52.289Z,4.60
2017-09-10T15:09:20.668Z,3.73
2017-09-10T15:11:48.297Z,5.43
2017-09-10T15:14:16.699Z,5.57
2017-09-10T15:16:44.282Z,4.53
2017-09-10T15:19:12.659Z,4.60
2017-09-10T15:21:41.009Z,5.60
2017-09-10T15:24:08.974Z,4.17
2017-09-10T15:26:36.561Z,6.73
2017-09-10T15:29:04.919Z,6.73
2017-09-10T15:31:32.530Z,3.53
2017-09-10T15:34:00.120Z,6.47
2017-09-10T15:36:27.988Z,3.47
2017-09-10T15:38:55.597Z,3.83
2017-09-10T15:41:23.543Z,5.77
2017-09-10T15:43:51.962Z,3.17
2017-09-10T15:46:19.588Z,4.57
2017-09-10T15:48:48.003Z,3.87
2017-09-10T15:51:15.567Z,4.23
2017-09-10T15:53:43.165Z,3.90
2017-09-10T15:56:10.723Z,4.17
2017-09-10T15:58:38.802Z,6.73
2017-09-10T16:01:06.394Z,5.40
2017-09-10T16:03:34.001Z,2.43
2017-09-10T16:06:01.610Z,2.90
2017-09-10T16:08:29.987Z,4.63
2017-09-10T16:10:57.920Z,4.57
2017-09-10T16:13:25.549Z,5.70
2017-09-10T16:15:53.156Z,2.13
2017-09-10T16:18:20.789Z,2.60
2017-09-10T16:20:48.419Z,3.90
2017-09-10T16:23:16.068Z,2.03
2017-09-10T16:25:43.658Z,4.60
2017-09-10T16:28:11.627Z,5.77
2017-09-10T16:30:39.241Z,9.17
2017-09-10T16:33:07.631Z,3.70
2017-09-10T16:35:35.243Z,3.73
2017-09-10T16:38:02.852Z,2.50
2017-09-10T16:40:30.518Z,3.00
2017-09-10T16:42:58.096Z,4.83
2017-09-10T16:45:26.093Z,2.50
2017-09-10T16:47:53.671Z,3.93
2017-09-10T16:50:21.422Z,5.13
2017-09-10T16:52:49.036Z,3.47
2017-09-10T16:55:16.637Z,3.00
2017-09-10T16:57:44.269Z,3.43
2017-09-10T17:00:11.901Z,4.40
2017-09-10T17:02:39.822Z,2.37
2017-09-10T17:05:07.428Z,2.20
2017-09-10T17:07:34.987Z,2.63
2017-09-10T17:10:02.593Z,4.40
2017-09-10T17:12:30.183Z,3.30
2017-09-10T17:14:57.795Z,5.37
2017-09-10T17:17:25.375Z,4.13
2017-09-10T17:19:53.013Z,3.63
2017-09-10T17:22:20.620Z,2.80
2017-09-10T17:24:48.194Z,6.73
2017-09-10T17:27:16.483Z,2.37
2017-09-10T17:29:44.070Z,3.00
2017-09-10T17:32:11.661Z,4.83
2017-09-10T17:34:39.295Z,2.43
2017-09-10T17:37:06.879Z,6.90
2017-09-10T17:39:34.856Z,3.77
2017-09-10T17:42:02.449Z,5.10
2017-09-10T17:44:30.799Z,4.83
2017-09-10T17:46:58.448Z,6.37
2017-09-10T17:49:26.027Z,5.27
2017-09-10T17:51:54.453Z,3.53
2017-09-10T17:54:22.058Z,4.03
2017-09-10T17:56:49.976Z,10.13
2017-09-10T17:59:17.577Z,10.33
2017-09-10T18:01:45.299Z,6.07
2017-09-10T18:04:12.951Z,4.90
2017-09-10T18:06:40.567Z,6.50
2017-09-10T18:09:08.192Z,3.87
2017-09-10T18:11:35.781Z,4.63
2017-09-10T18:14:03.648Z,5.40
2017-09-10T18:16:31.261Z,5.00
2017-09-10T18:18:58.836Z,6.73
2017-09-10T18:21:26.478Z,4.83
2017-09-10T18:23:54.054Z,7.67
2017-09-10T18:26:22.064Z,6.00
2017-09-10T18:28:49.639Z,4.77
2017-09-10T18:31:17.996Z,3.13
2017-09-10T18:33:45.583Z,5.80
2017-09-10T18:36:13.928Z,3.63
2017-09-10T18:38:41.558Z,4.30
2017-09-10T18:41:09.175Z,4.00
2017-09-10T18:43:38.019Z,4.60
2017-09-10T18:46:08.114Z,5.07
2017-09-10T18:48:35.764Z,5.23
2017-09-10T18:51:03.402Z,2.73
2017-09-10T18:53:31.801Z,5.40
2017-09-10T18:55:59.406Z,4.87
2017-09-10T18:58:27.077Z,3.43
2017-09-10T19:00:54.979Z,5.30
2017-09-10T19:03:22.608Z,6.57
2017-09-10T19:05:50.231Z,5.30
2017-09-10T19:08:17.959Z,5.80
2017-09-10T19:10:46.341Z,3.20
2017-09-10T19:13:13.957Z,7.17
2017-09-10T19:15:41.584Z,3.80
2017-09-10T19:27:54.223Z,6.10
2017-09-10T19:30:22.280Z,8.00
2017-09-10T19:32:49.960Z,4.00
2017-09-10T19:35:18.286Z,5.17
2017-09-10T19:37:45.949Z,5.70
2017-09-10T19:40:13.567Z,9.00
2017-09-10T19:42:41.934Z,5.97
2017-09-10T19:45:10.307Z,3.17
2017-09-10T19:47:38.181Z,6.53
2017-09-10T19:50:06.894Z,8.80
2017-09-10T19:52:34.516Z,5.97
2017-09-10T19:55:02.156Z,6.53
2017-09-10T19:57:29.782Z,4.10
2017-09-10T19:59:57.411Z,5.10
2017-09-10T20:02:25.083Z,6.13
2017-09-10T20:04:53.044Z,6.30
2017-09-10T20:07:21.421Z,6.23
2017-09-10T20:09:49.756Z,5.67
2017-09-10T20:12:17.714Z,5.87
2017-09-10T20:14:45.276Z,7.13
2017-09-10T20:17:12.933Z,4.70
2017-09-10T20:19:40.515Z,5.37
2017-09-10T20:22:08.412Z,7.30
2017-09-10T20:24:35.988Z,6.23
2017-09-10T20:27:03.595Z,6.13
2017-09-10T20:29:31.190Z,4.67
2017-09-10T20:31:59.596Z,7.03
2017-09-10T20:34:27.216Z,3.53
2017-09-10T20:36:54.803Z,6.87
2017-09-10T20:39:22.722Z,8.40
2017-09-10T20:41:50.342Z,6.13
2017-09-10T20:44:17.929Z,7.57
2017-09-10T20:46:45.699Z,5.53
2017-09-10T20:49:13.310Z,5.13
2017-09-10T20:51:41.745Z,7.67
2017-09-10T20:54:09.496Z,10.83
2017-09-10T20:56:37.474Z,11.80
2017-09-10T20:59:05.079Z,10.03
2017-09-10T21:01:33.442Z,6.50
2017-09-10T21:04:01.818Z,15.70
2017-09-10T21:06:29.515Z,5.20
2017-09-10T21:08:57.138Z,6.90
2017-09-10T21:11:24.768Z,5.00
2017-09-10T21:13:52.789Z,7.80
2017-09-10T21:16:20.402Z,9.53
2017-09-10T21:18:48.036Z,7.47
2017-09-10T21:21:15.650Z,8.60
2017-09-10T21:23:43.221Z,5.33
2017-09-10T21:26:11.619Z,10.57
2017-09-10T21:28:39.210Z,6.87
2017-09-10T21:31:07.087Z,9.50
2017-09-10T21:33:34.656Z,12.43
2017-09-10T21:36:02.257Z,9.03
2017-09-10T21:38:30.624Z,8.20
2017-09-10T21:40:58.226Z,9.40
2017-09-10T21:43:25.826Z,8.90
2017-09-10T21:45:53.410Z,6.73
2017-09-10T21:48:22.081Z,6.90
2017-09-10T21:50:49.655Z,11.70
2017-09-10T21:53:18.001Z,4.63
2017-09-10T21:55:45.624Z,6.10
2017-09-10T21:58:13.234Z,6.30
2017-09-10T22:00:40.814Z,8.13
2017-09-10T22:03:09.142Z,5.43
2017-09-10T22:05:37.002Z,11.37
2017-09-10T22:08:04.542Z,6.30
2017-09-10T22:10:32.121Z,9.20
2017-09-10T22:12:59.715Z,5.00
2017-09-10T22:15:27.302Z,6.40
2017-09-10T22:17:55.693Z,11.30
2017-09-10T22:20:23.605Z,6.53
2017-09-10T22:22:51.455Z,5.37
2017-09-10T22:25:19.066Z,5.70
2017-09-10T22:27:47.396Z,4.33
2017-09-10T22:30:14.990Z,5.67
2017-09-10T22:32:42.565Z,5.03
2017-09-10T22:35:10.921Z,6.60
2017-09-10T22:37:38.494Z,4.70
2017-09-10T22:40:07.137Z,9.23
2017-09-10T22:42:34.798Z,4.20
2017-09-10T22:45:02.369Z,8.23
2017-09-10T22:47:29.957Z,4.80
2017-09-10T22:49:58.286Z,5.77
2017-09-10T22:52:26.163Z,3.60
2017-09-10T22:54:53.799Z,5.50
2017-09-10T22:57:21.365Z,9.33
2017-09-10T22:59:48.968Z,4.27
2017-09-10T23:02:16.562Z,4.20
2017-09-10T23:04:44.492Z,3.03
2017-09-10T23:07:12.068Z,7.00
2017-09-10T23:09:41.161Z,5.90
2017-09-10T23:12:09.525Z,5.73
2017-09-10T23:14:37.149Z,5.53
2017-09-10T23:17:05.025Z,3.33
2017-09-10T23:19:32.614Z,5.50
2017-09-10T23:22:00.186Z,9.30
2017-09-10T23:24:28.667Z,2.87
2017-09-10T23:26:57.000Z,6.20
2017-09-10T23:29:24.602Z,3.00
2017-09-10T23:31:52.942Z,14.53
2017-09-10T23:34:20.502Z,6.83
2017-09-10T23:36:48.090Z,4.20
2017-09-10T23:39:15.670Z,3.27
2017-09-10T23:41:43.993Z,2.53
2017-09-10T23:44:11.546Z,8.70
2017-09-10T23:46:39.179Z,7.60
2017-09-10T23:49:06.773Z,7.00
2017-09-10T23:51:34.330Z,3.23
2017-09-10T23:54:01.930Z,4.03
2017-09-10T23:56:30.262Z,2.90
2017-09-10T23:58:57.858Z,5.57
